Time;durP1;ratioP1;P1;durP2;ratioP2;P2;SDS_P1;SDS_P2;PMS_P1;PMS_P2;Temp;Humidity;BMP_temperature;BMP_pressure;BME280_temperature;BME280_humidity;BME280_pressure;Samples;Min_cycle;Max_cycle;Signal;HPM_P1;HPM_P2
2023/04/18 05:10:35;;;;;;;13.57;8.53;;;7.60;99.90;;;;;;5463870;23;20367;-90
2023/04/18 05:13:02;;;;;;;10.67;7.40;;;7.70;99.90;;;;;;4935290;29;20275;-90
2023/04/18 05:15:29;;;;;;;12.37;8.20;;;7.70;99.90;;;;;;4935868;29;20196;-90
2023/04/18 05:17:56;;;;;;;12.23;8.00;;;7.70;99.90;;;;;;4930367;29;20210;-90
2023/04/18 05:20:23;;;;;;;10.17;7.00;;;7.80;99.90;;;;;;4935977;29;20194;-91
2023/04/18 05:22:50;;;;;;;12.47;8.20;;;7.80;99.90;;;;;;4935531;29;20418;-91
2023/04/18 05:25:17;;;;;;;9.37;7.20;;;7.90;80.20;;;;;;4917584;29;20663;-91
2023/04/18 05:27:45;;;;;;;11.07;7.87;;;7.90;21.60;;;;;;4935744;29;20210;-91
2023/04/18 05:30:12;;;;;;;9.20;7.27;;;7.90;1.00;;;;;;4935996;29;20205;-90
2023/04/18 05:32:39;;;;;;;9.87;7.70;;;8.00;1.00;;;;;;4935613;29;20202;-89
2023/04/18 05:35:06;;;;;;;11.77;9.00;;;8.10;1.00;;;;;;4935937;29;20221;-90
2023/04/18 05:37:33;;;;;;;11.90;8.57;;;8.10;1.00;;;;;;4935690;29;20386;-90
2023/04/18 05:40:00;;;;;;;13.00;8.43;;;8.20;1.00;;;;;;4935931;29;20201;-90
2023/04/18 05:42:27;;;;;;;11.40;7.37;;;8.20;1.00;;;;;;4936825;29;20220;-90
2023/04/18 05:44:55;;;;;;;10.07;7.37;;;8.20;1.00;;;;;;4939103;29;20203;-90
2023/04/18 05:47:25;;;;;;;12.30;8.67;;;8.30;1.00;;;;;;4939494;29;20661;-91
2023/04/18 05:49:52;;;;;;;12.87;8.67;;;8.40;1.00;;;;;;4941074;29;20198;-91
2023/04/18 05:52:19;;;;;;;11.90;8.23;;;8.50;1.00;;;;;;4937718;29;20201;-90
2023/04/18 05:54:45;;;;;;;13.37;8.20;;;8.60;1.00;;;;;;4920442;29;20273;-91
2023/04/18 05:57:12;;;;;;;11.13;8.87;;;8.70;1.00;;;;;;4920590;29;20222;-91
2023/04/18 05:59:39;;;;;;;11.67;8.07;;;8.80;1.00;;;;;;4930059;29;20202;-90
2023/04/18 06:02:11;;;;;;;10.67;6.57;;;8.90;99.90;;;;;;4939282;29;20223;-90
2023/04/18 06:04:38;;;;;;;10.57;8.13;;;9.00;99.90;;;;;;4922075;29;20259;-91
2023/04/18 06:07:05;;;;;;;11.13;7.20;;;9.10;99.90;;;;;;4920184;29;20204;-91
2023/04/18 06:09:32;;;;;;;13.33;8.50;;;9.30;99.90;;;;;;4934825;29;20254;-91
2023/04/18 06:11:59;;;;;;;9.93;7.77;;;9.30;39.70;;;;;;4938918;29;20564;-91
2023/04/18 06:14:25;;;;;;;11.10;7.60;;;9.40;1.00;;;;;;4938971;29;20272;-91
2023/04/18 06:16:52;;;;;;;9.17;7.00;;;9.50;1.00;;;;;;4939173;29;20208;-91
2023/04/18 06:19:20;;;;;;;11.83;7.63;;;9.50;1.00;;;;;;4938983;29;20202;-90
2023/04/18 06:21:48;;;;;;;11.57;8.20;;;9.50;1.00;;;;;;4939014;29;20282;-91
2023/04/18 06:24:15;;;;;;;11.57;7.30;;;9.60;1.00;;;;;;4938807;29;20660;-91
2023/04/18 06:26:42;;;;;;;12.90;8.60;;;9.60;1.00;;;;;;4938451;29;20660;-91
2023/04/18 06:29:08;;;;;;;10.33;7.73;;;9.70;1.00;;;;;;4939180;29;20204;-91
2023/04/18 06:31:35;;;;;;;11.30;7.60;;;9.70;1.00;;;;;;4938930;29;22032;-92
2023/04/18 06:34:02;;;;;;;11.07;7.83;;;9.80;1.00;;;;;;4938858;29;20683;-92
2023/04/18 06:36:30;;;;;;;10.07;7.70;;;9.80;1.00;;;;;;4938256;29;20661;-91
2023/04/18 06:38:57;;;;;;;11.50;8.30;;;9.80;1.00;;;;;;4937772;29;20208;-91
2023/04/18 06:41:23;;;;;;;11.27;8.40;;;9.90;99.90;;;;;;4938551;29;20209;-91
2023/04/18 06:43:50;;;;;;;10.13;7.30;;;9.90;1.00;;;;;;4938786;29;20220;-91
2023/04/18 06:46:17;;;;;;;10.33;7.90;;;9.90;1.00;;;;;;4938748;29;20209;-90
2023/04/18 06:48:44;;;;;;;13.13;7.70;;;9.90;99.90;;;;;;4938609;29;20210;-90
2023/04/18 06:51:11;;;;;;;12.63;7.20;;;9.90;99.90;;;;;;4938169;29;20200;-91
2023/04/18 06:53:39;;;;;;;10.23;8.07;;;10.00;99.90;;;;;;4937617;29;20200;-90
2023/04/18 06:56:06;;;;;;;9.50;7.10;;;10.10;99.90;;;;;;4938637;29;20569;-91
2023/04/18 06:58:33;;;;;;;10.80;7.63;;;10.10;99.90;;;;;;4938244;29;20197;-92
2023/04/18 07:01:00;;;;;;;10.90;8.27;;;10.20;99.90;;;;;;4938915;29;20205;-91
2023/04/18 07:03:27;;;;;;;12.10;8.10;;;10.40;99.90;;;;;;4920141;29;20228;-92
2023/04/18 07:05:54;;;;;;;10.37;6.90;;;10.50;99.90;;;;;;4919578;29;20213;-91
2023/04/18 07:08:21;;;;;;;12.33;8.50;;;10.60;99.90;;;;;;4920143;29;20209;-91
2023/04/18 07:10:49;;;;;;;11.07;8.53;;;10.80;99.90;;;;;;4929328;29;20241;-91
2023/04/18 07:13:16;;;;;;;11.47;7.90;;;11.00;1.00;;;;;;4956265;28;20658;-92
2023/04/18 07:15:42;;;;;;;10.30;7.83;;;11.20;1.00;;;;;;4919309;29;20203;-92
2023/04/18 07:18:09;;;;;;;11.00;7.63;;;11.30;1.00;;;;;;4934550;29;20208;-90
2023/04/18 07:20:36;;;;;;;10.27;7.30;;;11.40;99.90;;;;;;4938108;29;20563;-91
2023/04/18 07:23:03;;;;;;;9.70;6.93;;;11.40;99.90;;;;;;4938122;29;20223;-92
2023/04/18 07:25:30;;;;;;;11.70;8.03;;;11.40;99.90;;;;;;4937781;29;20209;-92
2023/04/18 07:27:58;;;;;;;10.13;7.80;;;11.60;99.90;;;;;;4938147;29;20203;-92
2023/04/18 07:30:25;;;;;;;10.30;7.80;;;11.70;98.50;;;;;;4938344;29;20213;-92
2023/04/18 07:32:52;;;;;;;10.17;8.00;;;11.80;99.90;;;;;;4938145;29;20200;-92
2023/04/18 07:35:18;;;;;;;12.73;8.67;;;12.00;1.00;;;;;;4938192;29;20685;-92
2023/04/18 07:37:46;;;;;;;11.30;7.83;;;12.10;1.00;;;;;;4937602;29;20671;-92
2023/04/18 07:40:15;;;;;;;10.53;7.87;;;12.20;1.00;;;;;;4938264;29;20201;-93
2023/04/18 07:42:42;;;;;;;12.13;8.23;;;12.30;1.00;;;;;;4938123;29;20228;-92
2023/04/18 07:45:11;;;;;;;10.37;8.23;;;12.50;1.00;;;;;;4938025;29;20559;-91
2023/04/18 07:47:38;;;;;;;10.00;8.40;;;12.60;1.00;;;;;;4937955;29;20208;-92
2023/04/18 07:50:05;;;;;;;12.10;8.80;;;12.60;1.00;;;;;;4938111;29;20205;-92
2023/04/18 07:52:32;;;;;;;9.57;7.67;;;12.80;1.00;;;;;;4938083;29;20200;-93
2023/04/18 07:54:59;;;;;;;11.17;7.07;;;12.90;1.00;;;;;;4937904;29;20213;-93
2023/04/18 07:57:25;;;;;;;11.20;7.30;;;13.00;15.70;;;;;;4937775;29;20667;-93
2023/04/18 07:59:52;;;;;;;10.67;7.63;;;13.00;99.90;;;;;;4937614;29;20671;-94
2023/04/18 08:02:21;;;;;;;8.83;7.03;;;13.10;1.00;;;;;;4937408;29;20223;-94
2023/04/18 08:04:48;;;;;;;11.43;8.00;;;13.00;1.00;;;;;;4937147;29;20213;-93
2023/04/18 08:07:15;;;;;;;10.60;7.73;;;13.10;1.00;;;;;;4937678;29;20214;-93
2023/04/18 08:09:45;;;;;;;12.97;7.33;;;13.00;1.00;;;;;;4937488;29;20280;-93
2023/04/18 08:12:12;;;;;;;9.50;7.37;;;13.00;99.90;;;;;;4921576;29;20203;-93
2023/04/18 08:14:38;;;;;;;12.30;7.47;;;13.10;1.00;;;;;;4918596;29;20202;-92
2023/04/18 08:17:05;;;;;;;10.27;6.40;;;13.10;1.00;;;;;;4918864;29;20208;-92
2023/04/18 08:19:33;;;;;;;8.87;7.13;;;13.10;1.00;;;;;;4921420;29;20297;-93
2023/04/18 08:22:09;;;;;;;11.77;8.80;;;13.20;1.00;;;;;;4937686;29;20226;-91
2023/04/18 08:24:35;;;;;;;11.17;7.77;;;13.10;1.00;;;;;;4937320;29;20661;-92
2023/04/18 08:27:02;;;;;;;10.27;7.93;;;13.20;1.00;;;;;;4937407;29;20205;-94
2023/04/18 08:29:29;;;;;;;11.53;7.93;;;13.30;1.00;;;;;;4937060;29;20213;-93
2023/04/18 08:31:56;;;;;;;10.93;7.47;;;13.40;1.00;;;;;;4937092;29;20286;-91
2023/04/18 08:34:23;;;;;;;10.63;8.03;;;13.50;1.00;;;;;;4937102;29;20684;-94
2023/04/18 08:36:51;;;;;;;10.30;7.30;;;13.60;1.00;;;;;;4937135;29;20203;-92
2023/04/18 08:39:18;;;;;;;10.47;7.90;;;13.60;99.90;;;;;;4937456;29;20231;-93
2023/04/18 08:41:49;;;;;;;12.13;7.90;;;13.70;99.90;;;;;;4937402;29;20214;-93
2023/04/18 08:44:17;;;;;;;10.07;6.37;;;13.70;1.00;;;;;;4937217;29;20333;-93
2023/04/18 08:46:45;;;;;;;9.50;7.20;;;13.80;1.00;;;;;;4937307;29;20219;-92
2023/04/18 08:49:11;;;;;;;9.20;6.83;;;13.80;99.90;;;;;;4937158;29;20686;-92
2023/04/18 08:51:40;;;;;;;9.33;5.27;;;13.80;99.90;;;;;;4929048;29;20247;-93
2023/04/18 08:54:08;;;;;;;9.70;7.93;;;13.80;99.90;;;;;;4936996;29;20209;-93
2023/04/18 08:56:37;;;;;;;8.40;7.30;;;13.80;99.90;;;;;;4936896;29;20205;-93
2023/04/18 08:59:04;;;;;;;11.43;7.97;;;13.80;1.00;;;;;;4930319;29;20658;-93
2023/04/18 09:01:51;;;;;;;10.67;7.90;;;13.80;99.90;;;;;;4918179;29;20212;-93
2023/04/18 09:04:35;;;;;;;10.40;8.03;;;13.80;1.00;;;;;;4934066;29;20248;-90
2023/04/18 09:07:03;;;;;;;9.43;7.13;;;13.90;99.90;;;;;;4918088;29;20553;-92
2023/04/18 09:09:42;;;;;;;11.33;7.47;;;14.00;99.90;;;;;;4918020;29;20202;-92
2023/04/18 09:12:10;;;;;;;11.60;8.17;;;14.10;99.90;;;;;;4948752;29;20207;-93
2023/04/18 09:14:41;;;;;;;12.13;7.30;;;14.10;1.00;;;;;;4945527;28;20280;-93
2023/04/18 09:17:08;;;;;;;8.77;5.63;;;14.10;1.00;;;;;;4937645;29;20211;-93
2023/04/18 09:19:35;;;;;;;10.67;7.70;;;14.10;3.40;;;;;;4940864;29;20204;-93
2023/04/18 09:22:03;;;;;;;14.53;8.73;;;14.20;2.10;;;;;;4940647;29;20207;-90
2023/04/18 09:24:31;;;;;;;11.50;8.07;;;14.20;1.00;;;;;;4940243;29;20224;-93
2023/04/18 09:27:00;;;;;;;9.40;7.07;;;14.20;1.00;;;;;;4940635;29;20210;-93
2023/04/18 09:29:45;;;;;;;9.67;7.30;;;14.20;1.00;;;;;;4940159;29;20208;-93
2023/04/18 09:32:22;;;;;;;10.93;7.43;;;14.20;26.70;;;;;;4940566;29;20630;-92
2023/04/18 09:34:50;;;;;;;11.73;8.60;;;14.20;79.90;;;;;;4940492;29;20202;-93
2023/04/18 09:37:17;;;;;;;9.30;7.30;;;14.30;1.00;;;;;;4940114;29;20196;-93
2023/04/18 09:39:44;;;;;;;9.88;7.78;;;14.40;1.00;;;;;;4940234;29;20202;-92
2023/04/18 09:42:13;;;;;;;9.33;6.87;;;14.50;99.90;;;;;;4940008;29;20201;-92
2023/04/18 09:44:59;;;;;;;9.65;7.30;;;14.60;1.00;;;;;;4939922;29;20213;-92
2023/04/18 09:47:27;;;;;;;11.80;7.25;;;14.60;1.00;;;;;;4940332;29;20206;-92
2023/04/18 09:49:54;;;;;;;8.93;6.85;;;14.70;1.00;;;;;;4939979;29;20266;-92
2023/04/18 09:52:24;;;;;;;8.70;6.77;;;14.70;1.00;;;;;;4940223;29;20694;-92
2023/04/18 09:54:57;;;;;;;10.85;7.38;;;14.70;1.00;;;;;;4940330;29;20207;-92
2023/04/18 09:57:27;;;;;;;10.82;7.30;;;14.70;1.00;;;;;;4939649;29;20213;-91
2023/04/18 10:00:07;;;;;;;9.52;6.97;;;14.70;1.00;;;;;;4939612;29;20203;-92
2023/04/18 10:02:39;;;;;;;9.40;7.47;;;14.70;1.00;;;;;;4939900;29;20194;-92
2023/04/18 10:05:08;;;;;;;9.10;7.00;;;14.70;1.00;;;;;;4939970;29;20187;-91
2023/04/18 10:07:35;;;;;;;10.55;7.28;;;14.80;1.00;;;;;;4939674;29;20217;-91
2023/04/18 10:10:02;;;;;;;8.88;6.07;;;14.90;1.00;;;;;;4939117;29;20278;-92
2023/04/18 10:12:31;;;;;;;10.95;8.30;;;15.10;1.00;;;;;;4939782;29;20209;-91
2023/04/18 10:14:58;;;;;;;9.82;6.50;;;15.40;99.90;;;;;;4939421;29;20200;-93
2023/04/18 10:17:27;;;;;;;10.95;7.65;;;15.60;21.90;;;;;;4939558;29;20204;-92
2023/04/18 10:20:06;;;;;;;9.05;6.82;;;15.90;1.00;;;;;;4937926;29;20203;-91
2023/04/18 10:22:34;;;;;;;12.50;7.63;;;16.00;1.00;;;;;;4922953;29;20196;-93
2023/04/18 10:25:01;;;;;;;11.40;7.00;;;16.20;1.00;;;;;;4939541;29;20251;-92
2023/04/18 10:27:58;;;;;;;11.43;7.93;;;16.20;1.00;;;;;;4939242;29;20226;-92
2023/04/18 10:30:51;;;;;;;10.63;8.05;;;16.20;1.00;;;;;;4939341;29;20553;-92
2023/04/18 10:33:31;;;;;;;11.00;7.47;;;16.30;1.00;;;;;;4939006;29;20733;-92
2023/04/18 10:36:04;;;;;;;8.80;6.47;;;16.40;1.00;;;;;;4952911;29;20575;-92
2023/04/18 10:38:32;;;;;;;8.68;7.53;;;16.50;99.90;;;;;;4958581;28;20210;-93
2023/04/18 10:41:20;;;;;;;8.75;7.05;;;16.60;99.90;;;;;;4958450;28;20212;-92
2023/04/18 10:44:18;;;;;;;11.73;7.63;;;16.70;99.90;;;;;;4958230;28;20303;-93
2023/04/18 10:47:30;;;;;;;9.57;7.50;;;16.90;99.90;;;;;;4958364;28;20207;-93
2023/04/18 10:50:03;;;;;;;8.95;6.95;;;17.00;1.00;;;;;;4958365;28;20208;-92
2023/04/18 10:52:30;;;;;;;9.68;6.93;;;17.00;1.00;;;;;;4958090;28;20212;-92
2023/04/18 10:55:17;;;;;;;10.60;7.22;;;17.00;1.00;;;;;;4944680;28;20228;-92
2023/04/18 10:57:45;;;;;;;7.97;6.63;;;17.10;1.00;;;;;;4938767;29;20679;-93
2023/04/18 11:00:16;;;;;;;8.57;6.97;;;17.20;1.00;;;;;;4939110;29;20578;-93
2023/04/18 11:02:50;;;;;;;9.18;6.75;;;17.30;1.00;;;;;;4938663;29;20672;-93
2023/04/18 11:05:22;;;;;;;9.20;6.93;;;17.50;1.00;;;;;;4938908;29;20199;-93
2023/04/18 11:07:49;;;;;;;9.18;6.32;;;17.80;1.00;;;;;;4919913;29;20209;-90
2023/04/18 11:10:24;;;;;;;9.23;6.50;;;17.90;1.00;;;;;;4919543;29;20238;-92
2023/04/18 11:12:51;;;;;;;9.95;6.60;;;18.00;1.00;;;;;;4935943;29;20588;-90
2023/04/18 11:15:21;;;;;;;8.38;6.40;;;18.10;99.90;;;;;;4938457;29;20231;-90
2023/04/18 11:17:56;;;;;;;7.00;5.97;;;18.00;99.90;;;;;;4938606;29;20211;-92
2023/04/18 11:20:22;;;;;;;9.40;6.63;;;17.90;99.90;;;;;;4938598;29;20181;-92
2023/04/18 11:22:51;;;;;;;7.57;6.22;;;17.90;99.90;;;;;;4938479;29;20283;-90
2023/04/18 11:25:21;;;;;;;8.18;6.88;;;18.00;99.90;;;;;;4938225;29;20215;-92
2023/04/18 11:27:50;;;;;;;7.30;5.90;;;17.90;99.90;;;;;;4938324;29;20228;-93
2023/04/18 11:30:17;;;;;;;8.10;6.32;;;17.90;99.90;;;;;;4938182;29;20200;-91
2023/04/18 11:32:46;;;;;;;8.75;6.47;;;17.90;99.90;;;;;;4938432;29;20216;-93
2023/04/18 11:35:14;;;;;;;8.18;6.15;;;17.70;99.90;;;;;;4938117;29;20674;-94
2023/04/18 11:37:44;;;;;;;8.70;6.53;;;17.70;99.90;;;;;;4938158;29;20649;-93
2023/04/18 11:40:11;;;;;;;8.57;5.97;;;17.60;99.90;;;;;;4937558;29;20200;-93
2023/04/18 11:42:40;;;;;;;6.95;6.18;;;17.60;99.90;;;;;;4938369;29;20227;-94
2023/04/18 11:45:10;;;;;;;7.38;6.07;;;17.80;99.90;;;;;;4937944;29;20224;-91
2023/04/18 11:47:37;;;;;;;8.35;6.03;;;17.80;99.90;;;;;;4938136;29;20209;-93
2023/04/18 11:50:07;;;;;;;6.97;5.82;;;18.00;99.90;;;;;;4937793;29;20219;-93
2023/04/18 11:52:35;;;;;;;7.40;5.93;;;18.10;99.90;;;;;;4938415;29;20205;-93
2023/04/18 11:55:16;;;;;;;7.38;6.22;;;18.20;99.90;;;;;;4938192;29;20293;-93
2023/04/18 11:57:49;;;;;;;6.95;5.72;;;18.20;8.90;;;;;;4919026;29;20205;-92
2023/04/18 12:00:18;;;;;;;7.28;6.00;;;18.30;1.00;;;;;;4918998;29;20192;-91
2023/04/18 12:02:46;;;;;;;7.25;5.97;;;18.20;1.00;;;;;;4919065;29;20198;-91
2023/04/18 12:05:25;;;;;;;7.40;6.20;;;18.20;1.00;;;;;;4919020;29;20221;-93
2023/04/18 12:07:51;;;;;;;6.88;6.10;;;18.30;1.00;;;;;;4918990;29;20276;-93
2023/04/18 12:10:26;;;;;;;8.60;6.13;;;18.50;1.00;;;;;;4918869;29;20244;-91
2023/04/18 12:12:56;;;;;;;7.10;6.07;;;18.70;1.00;;;;;;4918808;29;20206;-93
2023/04/18 12:15:26;;;;;;;7.93;6.40;;;18.90;1.00;;;;;;4934219;29;20189;-93
2023/04/18 12:17:57;;;;;;;7.15;6.15;;;19.20;26.00;;;;;;4937454;29;20205;-91
2023/04/18 12:20:35;;;;;;;6.80;6.10;;;19.50;1.00;;;;;;4928503;29;20684;-91
2023/04/18 12:23:02;;;;;;;7.93;5.72;;;19.50;1.00;;;;;;4918771;29;20275;-92
2023/04/18 12:25:29;;;;;;;6.70;5.78;;;19.30;1.00;;;;;;4935171;29;20216;-92
2023/04/18 12:27:57;;;;;;;6.05;5.40;;;19.20;1.00;;;;;;4937732;29;20661;-92
2023/04/18 12:30:27;;;;;;;6.68;5.47;;;19.00;1.00;;;;;;4920905;29;20224;-91
2023/04/18 12:32:55;;;;;;;7.78;6.10;;;18.80;1.00;;;;;;4918462;29;20200;-92
2023/04/18 12:35:23;;;;;;;7.18;5.75;;;18.70;1.00;;;;;;4925885;29;20200;-94
2023/04/18 12:37:52;;;;;;;6.28;5.30;;;18.60;1.00;;;;;;4937494;29;20213;-94
2023/04/18 12:40:21;;;;;;;6.07;5.25;;;18.50;1.00;;;;;;4937612;29;20550;-94
2023/04/18 12:42:49;;;;;;;7.00;5.70;;;18.30;1.00;;;;;;4937182;29;20204;-94
2023/04/18 12:45:16;;;;;;;7.93;5.90;;;18.20;1.00;;;;;;4937192;29;20220;-93
2023/04/18 12:47:45;;;;;;;8.73;6.35;;;18.10;1.00;;;;;;4937095;29;20204;-94
2023/04/18 12:50:16;;;;;;;6.07;5.10;;;18.10;1.00;;;;;;4937406;29;20196;-94
2023/04/18 12:52:44;;;;;;;6.78;5.50;;;18.20;1.00;;;;;;4939111;29;20257;-93
2023/04/18 12:55:13;;;;;;;6.35;5.47;;;18.30;1.00;;;;;;4941447;29;20201;-93
2023/04/18 12:57:40;;;;;;;6.38;5.22;;;18.30;1.00;;;;;;4941327;29;20200;-93
2023/04/18 13:00:09;;;;;;;7.32;5.50;;;18.20;1.00;;;;;;4941020;29;20296;-93
2023/04/18 13:02:51;;;;;;;7.25;5.38;;;17.90;1.00;;;;;;4941482;29;20196;-93
2023/04/18 13:05:19;;;;;;;6.70;5.47;;;17.60;1.00;;;;;;4940975;29;20566;-94
2023/04/18 13:07:47;;;;;;;6.28;4.85;;;17.40;1.00;;;;;;4922150;29;20205;-93
2023/04/18 13:10:17;;;;;;;7.05;5.35;;;17.20;2.40;;;;;;4921982;29;20225;-94
2023/04/18 13:12:45;;;;;;;6.40;5.22;;;17.10;94.50;;;;;;4922354;29;20206;-93
2023/04/18 13:15:12;;;;;;;5.25;4.75;;;17.00;99.90;;;;;;4938435;29;20288;-93
2023/04/18 13:17:39;;;;;;;6.00;4.88;;;16.90;99.90;;;;;;4941169;29;20537;-93
2023/04/18 13:20:09;;;;;;;5.80;5.03;;;16.70;99.90;;;;;;4941074;29;20200;-93
2023/04/18 13:22:36;;;;;;;7.38;5.32;;;16.60;99.90;;;;;;4941011;29;20197;-93
2023/04/18 13:25:03;;;;;;;6.85;4.90;;;16.50;1.00;;;;;;4940914;29;20212;-93
2023/04/18 13:27:31;;;;;;;7.15;5.15;;;16.30;1.00;;;;;;4940491;29;20692;-92
2023/04/18 13:29:58;;;;;;;5.78;4.93;;;16.20;1.00;;;;;;4940635;29;20205;-94
2023/04/18 13:32:25;;;;;;;6.40;5.07;;;16.20;1.00;;;;;;4940581;29;20197;-94
2023/04/18 13:34:54;;;;;;;7.22;5.05;;;16.30;1.00;;;;;;4940789;29;20207;-92
2023/04/18 13:37:21;;;;;;;6.07;5.00;;;16.20;1.00;;;;;;4940121;29;20205;-94
2023/04/18 13:39:48;;;;;;;6.15;4.70;;;16.30;1.00;;;;;;4922608;29;20197;-93
2023/04/18 13:42:16;;;;;;;5.63;4.32;;;16.40;1.00;;;;;;4921816;29;20310;-93
2023/04/18 13:44:45;;;;;;;4.90;4.40;;;16.50;10.80;;;;;;4932163;29;20252;-93
2023/04/18 13:47:12;;;;;;;5.35;4.72;;;16.50;99.90;;;;;;4940628;29;20197;-94
2023/04/18 13:49:39;;;;;;;7.47;5.40;;;16.60;99.90;;;;;;4940073;29;20204;-93
2023/04/18 13:52:06;;;;;;;5.40;4.80;;;16.70;47.20;;;;;;4939946;29;20681;-93
2023/04/18 13:54:33;;;;;;;4.60;4.20;;;16.90;84.00;;;;;;4940460;29;20193;-93
2023/04/18 13:57:02;;;;;;;5.97;4.82;;;17.00;1.00;;;;;;4940527;29;20301;-93
2023/04/18 13:59:30;;;;;;;7.03;4.60;;;17.10;1.00;;;;;;4940020;29;20568;-94
2023/04/18 14:01:58;;;;;;;6.75;4.68;;;17.20;1.00;;;;;;4939956;29;20201;-93
2023/04/18 14:04:25;;;;;;;5.60;5.00;;;17.30;1.00;;;;;;4939449;29;20232;-93
2023/04/18 14:06:52;;;;;;;6.95;5.47;;;17.30;1.00;;;;;;4940200;29;20292;-93
2023/04/18 14:09:19;;;;;;;6.60;5.50;;;17.50;99.90;;;;;;4939960;29;20196;-93
2023/04/18 14:11:46;;;;;;;6.00;5.05;;;17.60;99.90;;;;;;4939838;29;20228;-93
2023/04/18 14:14:13;;;;;;;6.55;5.03;;;17.80;99.90;;;;;;4939888;29;20193;-94
2023/04/18 14:16:40;;;;;;;6.35;4.90;;;17.90;99.90;;;;;;4939952;29;20205;-93
2023/04/18 14:19:08;;;;;;;5.25;4.53;;;18.00;99.90;;;;;;4939687;29;20205;-93
2023/04/18 14:21:35;;;;;;;5.10;4.60;;;18.10;99.90;;;;;;4939736;29;20208;-94
2023/04/18 14:24:02;;;;;;;5.10;4.50;;;18.30;99.90;;;;;;4940041;29;20231;-94
2023/04/18 14:26:29;;;;;;;4.75;4.03;;;18.30;17.10;;;;;;4939603;29;20201;-93
2023/04/18 14:28:56;;;;;;;4.40;3.78;;;18.30;1.00;;;;;;4939460;29;20570;-93
2023/04/18 14:31:23;;;;;;;5.47;4.10;;;18.20;1.00;;;;;;4939872;29;20255;-93
2023/04/18 14:33:49;;;;;;;6.30;4.03;;;18.00;1.00;;;;;;4939157;29;20203;-93
2023/04/18 14:36:18;;;;;;;4.50;4.10;;;18.00;1.00;;;;;;4939671;29;20205;-94
2023/04/18 14:38:47;;;;;;;5.72;4.20;;;17.90;1.00;;;;;;4939415;29;20228;-93
2023/04/18 14:41:14;;;;;;;4.90;4.40;;;17.90;1.00;;;;;;4939353;29;20211;-93
2023/04/18 14:43:41;;;;;;;5.65;4.00;;;17.90;1.00;;;;;;4938915;29;20196;-93
2023/04/18 14:46:12;;;;;;;3.97;3.55;;;17.90;1.00;;;;;;4938925;29;20212;-94
2023/04/18 14:48:38;;;;;;;5.00;4.13;;;17.80;1.00;;;;;;4939481;29;20197;-96
2023/04/18 14:51:06;;;;;;;4.53;4.00;;;17.60;1.00;;;;;;4939319;29;20390;-96
2023/04/18 14:53:34;;;;;;;5.85;3.83;;;17.50;1.00;;;;;;4939336;29;20209;-92
2023/04/18 14:56:01;;;;;;;4.97;4.47;;;17.40;1.00;;;;;;4939005;29;20204;-93
2023/04/18 14:58:28;;;;;;;5.22;4.45;;;17.40;1.00;;;;;;4938413;29;20197;-92
2023/04/18 15:00:54;;;;;;;4.57;4.15;;;17.40;1.00;;;;;;4919632;29;20698;-92
2023/04/18 15:03:21;;;;;;;5.30;4.60;;;17.30;1.00;;;;;;4919939;29;20237;-92
2023/04/18 15:05:48;;;;;;;5.13;4.55;;;17.30;1.00;;;;;;4938823;29;20216;-93
2023/04/18 15:08:15;;;;;;;5.07;4.57;;;17.20;1.00;;;;;;4938683;29;20206;-92
2023/04/18 15:10:45;;;;;;;5.38;4.80;;;17.20;1.00;;;;;;4938292;29;20225;-93
2023/04/18 15:13:12;;;;;;;5.75;4.20;;;17.10;1.00;;;;;;4938636;29;20200;-92
2023/04/18 15:15:39;;;;;;;5.20;4.55;;;17.10;1.00;;;;;;4938120;29;20200;-93
2023/04/18 15:18:06;;;;;;;4.78;4.28;;;17.20;1.00;;;;;;4938232;29;20252;-93
2023/04/18 15:20:34;;;;;;;4.55;3.80;;;17.20;1.00;;;;;;4938660;29;20287;-93
2023/04/18 15:23:02;;;;;;;5.43;4.53;;;17.10;1.00;;;;;;4938821;29;20581;-93
2023/04/18 15:25:29;;;;;;;5.13;4.30;;;17.00;1.00;;;;;;4938719;29;20217;-92
2023/04/18 15:27:58;;;;;;;4.65;4.18;;;16.90;39.20;;;;;;4938241;29;20630;-92
2023/04/18 15:30:25;;;;;;;5.80;4.32;;;16.80;99.90;;;;;;4937579;29;20205;-93
2023/04/18 15:32:52;;;;;;;4.93;4.38;;;16.70;99.90;;;;;;4938175;29;20190;-93
2023/04/18 15:35:19;;;;;;;4.53;3.80;;;16.70;99.90;;;;;;4938614;29;20252;-92
2023/04/18 15:37:46;;;;;;;4.43;3.80;;;16.60;80.50;;;;;;4937415;29;20224;-91
2023/04/18 15:40:15;;;;;;;4.15;3.33;;;16.50;83.20;;;;;;4937817;29;20199;-92
2023/04/18 15:42:42;;;;;;;3.60;3.30;;;16.50;99.90;;;;;;4938123;29;20196;-93
2023/04/18 15:45:11;;;;;;;4.20;3.70;;;16.40;99.90;;;;;;4937627;29;20212;-92
2023/04/18 15:47:39;;;;;;;5.47;3.20;;;16.30;1.00;;;;;;4937901;29;20248;-91
2023/04/18 15:50:07;;;;;;;3.83;3.40;;;16.20;1.00;;;;;;4938041;29;20207;-91
2023/04/18 15:52:34;;;;;;;3.75;3.28;;;16.20;1.00;;;;;;4937425;29;20209;-93
2023/04/18 15:57:37;;;;;;;3.83;3.40;;;16.20;84.90;;;;;;5326874;23;20232;-96
2023/04/18 16:00:08;;;;;;;3.75;3.30;;;16.20;99.90;;;;;;4950726;28;20224;-93
2023/04/18 16:02:37;;;;;;;4.78;3.65;;;16.20;99.90;;;;;;4941593;29;20208;-94
2023/04/18 16:05:06;;;;;;;4.72;3.92;;;16.20;99.90;;;;;;4941862;29;20629;-95
2023/04/18 16:07:33;;;;;;;4.65;3.60;;;16.20;99.90;;;;;;4941378;29;20220;-95
2023/04/18 16:10:01;;;;;;;4.38;3.70;;;16.20;1.00;;;;;;4940185;29;20209;-95
2023/04/18 16:12:28;;;;;;;7.53;4.95;;;16.10;1.00;;;;;;5037833;23;20228;-94
2023/04/18 16:25:18;;;;;;;4.57;3.30;;;16.10;1.00;;;;;;5447485;23;20245;-86
2023/04/18 17:38:47;;;;;;;7.53;5.00;;;13.40;99.90;;;;;;5830609;23;20172;-94
2023/04/18 17:46:26;;;;;;;13.33;6.87;;;12.90;20.70;;;;;;5391418;23;20252;-95
2023/04/18 17:53:57;;;;;;;7.13;4.97;;;12.40;99.90;;;;;;5237912;23;20230;-96
2023/04/18 17:58:53;;;;;;;10.03;6.30;;;12.10;1.00;;;;;;4971904;23;20217;-95
2023/04/18 18:01:21;;;;;;;12.10;5.37;;;12.00;1.00;;;;;;4938939;29;20251;-95
2023/04/18 18:09:00;;;;;;;8.20;5.10;;;11.70;99.90;;;;;;5725959;23;20236;-96
2023/04/18 18:19:13;;;;;;;10.63;5.27;;;11.30;1.00;;;;;;5175739;23;20210;-96
2023/04/18 18:21:40;;;;;;;13.07;5.80;;;11.30;1.00;;;;;;4983223;28;20205;-96
2023/04/18 18:26:44;;;;;;;8.93;5.40;;;11.10;1.00;;;;;;5937323;23;20281;-95
2023/04/18 18:29:11;;;;;;;9.63;5.87;;;11.10;99.90;;;;;;4982861;28;20194;-96
2023/04/18 18:31:39;;;;;;;10.93;5.40;;;11.00;99.90;;;;;;4978502;28;20203;-96
2023/04/18 18:34:05;;;;;;;8.03;5.60;;;10.90;99.90;;;;;;4977572;28;20267;-96
2023/04/18 18:36:33;;;;;;;9.30;5.50;;;10.80;99.90;;;;;;4977474;28;20301;-93
2023/04/18 18:39:00;;;;;;;7.07;5.40;;;10.70;1.00;;;;;;4976571;28;20216;-96
2023/04/18 18:41:26;;;;;;;7.77;5.63;;;10.70;1.00;;;;;;4978128;28;20198;-95
2023/04/18 18:43:55;;;;;;;11.03;5.80;;;10.60;1.00;;;;;;4974976;28;20199;-94
2023/04/18 18:46:22;;;;;;;11.70;5.60;;;10.50;1.00;;;;;;4958938;29;20223;-94
2023/04/18 18:48:48;;;;;;;9.07;6.22;;;10.40;1.00;;;;;;4971844;28;20504;-94
2023/04/18 18:51:17;;;;;;;10.63;5.87;;;10.40;1.00;;;;;;4977048;28;20206;-94
2023/04/18 18:53:45;;;;;;;8.43;5.80;;;10.30;99.90;;;;;;4975959;28;20190;-93
2023/04/18 18:56:11;;;;;;;8.60;5.63;;;10.30;99.90;;;;;;4961527;28;20213;-94
2023/04/18 18:58:39;;;;;;;9.70;5.87;;;10.30;99.90;;;;;;4974313;28;20208;-94
2023/04/18 19:01:07;;;;;;;9.80;5.70;;;10.20;99.90;;;;;;4972540;28;20203;-93
2023/04/18 19:03:34;;;;;;;8.67;6.33;;;10.10;99.90;;;;;;4977204;28;20608;-93
2023/04/18 19:06:02;;;;;;;8.67;5.77;;;10.00;99.90;;;;;;4975173;28;20217;-95
2023/04/18 19:08:29;;;;;;;9.07;5.90;;;10.00;99.90;;;;;;4977689;28;20197;-95
2023/04/18 19:10:56;;;;;;;9.27;5.53;;;9.90;99.90;;;;;;4960231;28;20194;-94
2023/04/18 19:13:23;;;;;;;7.87;5.10;;;9.90;99.90;;;;;;4975288;28;20201;-94
2023/04/18 19:15:50;;;;;;;11.07;5.53;;;9.90;99.90;;;;;;4972678;28;20215;-95
2023/04/18 19:18:19;;;;;;;9.93;5.77;;;9.90;1.00;;;;;;4977128;28;20240;-96
2023/04/18 19:20:46;;;;;;;10.43;5.90;;;9.90;1.00;;;;;;4973426;28;20197;-94
2023/04/18 19:23:13;;;;;;;7.83;5.37;;;9.90;1.00;;;;;;4976379;28;20209;-94
2023/04/18 19:25:39;;;;;;;8.83;5.37;;;9.90;1.00;;;;;;4992681;28;20220;-95
2023/04/18 19:28:06;;;;;;;9.67;6.47;;;10.00;1.00;;;;;;4995542;28;20326;-94
2023/04/18 19:30:33;;;;;;;8.20;5.37;;;10.00;1.00;;;;;;4976868;28;20549;-95
2023/04/18 19:33:00;;;;;;;7.77;5.97;;;10.00;1.00;;;;;;4976942;28;20200;-95
2023/04/18 19:35:28;;;;;;;9.53;6.00;;;10.10;1.00;;;;;;4976868;28;20203;-94
2023/04/18 19:38:00;;;;;;;8.97;5.83;;;10.10;1.00;;;;;;4963783;28;20204;-94
2023/04/18 19:40:27;;;;;;;8.53;5.27;;;10.10;1.00;;;;;;4964357;28;20238;-94
2023/04/18 19:42:53;;;;;;;7.80;5.40;;;10.10;1.00;;;;;;4969638;28;20279;-94
2023/04/18 19:45:20;;;;;;;8.23;5.80;;;10.10;1.00;;;;;;4977561;28;20310;-95
2023/04/18 19:47:47;;;;;;;10.47;6.10;;;10.10;1.00;;;;;;4975317;28;20218;-95
2023/04/18 19:50:14;;;;;;;9.30;5.60;;;10.10;1.00;;;;;;4969767;28;20205;-96
2023/04/18 19:52:42;;;;;;;8.00;5.70;;;10.10;1.00;;;;;;4959601;28;20209;-94
2023/04/18 19:55:10;;;;;;;9.07;5.47;;;10.10;1.00;;;;;;4976118;28;20221;-94
2023/04/18 19:57:38;;;;;;;8.80;5.23;;;10.10;1.00;;;;;;4960096;28;20240;-94
2023/04/18 20:00:08;;;;;;;7.73;5.30;;;10.10;1.00;;;;;;4967748;28;20218;-94